Terminal Aerodrome Forecast
Issued by NWS Twin Cities, MN

Home | Current Version | Previous Version | Text Only | Print | Product List | Glossary Off
Versions: 1 2 3 4 5 6 7 8 9 10 11 12 13 14 15 16 17

847
FTUS43 KMPX 131721
TAFEAU
TAF
KEAU 131721Z 1318/1418 13003KT P6SM BKN100
     FM132300 13004KT P6SM VCSH SCT025 OVC050
     FM140300 16003KT P6SM SCT050 BKN100
     FM140600 16003KT P6SM SCT250=

USA.gov is the U.S. government's official web portal to all federal, state and local government web resources and services.